Terminal Aerodrome Forecast
Issued by NWS

Home | Current Version | Previous Version | Text Only | Print | Product List | Glossary On
Versions: 1 2 3 4 5 6 7 8 9 10 11 12 13 14 15 16 17 18 19
000
FTUS41 KCAR 192025 AAA
TAFPQI
TAF AMD
KPQI 192025Z 1920/2018 18010KT P6SM BKN035
     FM200000 18006KT P6SM BKN025
     FM200400 VRB03KT P6SM OVC008
     FM200800 VRB03KT 2SM BR OVC003
     FM201300 VRB03KT P6SM BKN008
     FM201500 04006KT P6SM BKN015=

USA.gov is the U.S. government's official web portal to all federal, state and local government web resources and services.